createdAt,value
2019-02-08T00:00:02.582Z,4.00
2019-02-08T00:02:32.657Z,4.00
2019-02-08T00:05:02.261Z,4.00
2019-02-08T00:07:31.964Z,3.90
2019-02-08T00:10:02.011Z,3.90
2019-02-08T00:12:33.626Z,3.90
2019-02-08T00:15:03.381Z,3.90
2019-02-08T00:17:33.872Z,3.90
2019-02-08T00:20:05.458Z,3.90
2019-02-08T00:22:35.240Z,3.90
2019-02-08T00:25:06.237Z,3.90
2019-02-08T00:27:36.225Z,3.90
2019-02-08T00:30:09.723Z,3.90
2019-02-08T00:32:39.507Z,3.80
2019-02-08T00:35:09.110Z,3.90
2019-02-08T00:37:38.779Z,3.80
2019-02-08T00:40:11.312Z,3.80
2019-02-08T00:42:41.211Z,3.80
2019-02-08T00:45:13.062Z,3.80
2019-02-08T00:47:42.726Z,3.80
2019-02-08T00:50:17.615Z,3.70
2019-02-08T00:52:47.683Z,3.70
2019-02-08T00:55:17.755Z,3.70
2019-02-08T00:57:47.536Z,3.70
2019-02-08T01:00:18.086Z,3.70
2019-02-08T01:02:48.130Z,3.70
2019-02-08T01:05:18.694Z,3.70
2019-02-08T01:07:48.451Z,3.70
2019-02-08T01:10:23.898Z,3.70
2019-02-08T01:12:53.621Z,3.70
2019-02-08T01:15:23.940Z,3.70
2019-02-08T01:17:53.686Z,3.80
2019-02-08T01:20:23.688Z,3.80
2019-02-08T01:22:53.582Z,3.80
2019-02-08T01:25:24.573Z,3.70
2019-02-08T01:27:54.420Z,3.70
2019-02-08T01:30:25.986Z,3.70
2019-02-08T01:32:55.743Z,3.70
2019-02-08T01:35:26.492Z,3.70
2019-02-08T01:37:57.616Z,3.80
2019-02-08T01:40:29.249Z,3.70
2019-02-08T01:42:59.826Z,3.70
2019-02-08T01:45:31.015Z,3.70
2019-02-08T01:48:01.020Z,3.80
2019-02-08T01:50:31.572Z,3.70
2019-02-08T01:53:01.348Z,3.70
2019-02-08T01:55:31.202Z,3.70
2019-02-08T01:58:01.007Z,3.70
2019-02-08T02:00:33.627Z,3.70
2019-02-08T02:03:03.720Z,3.60
2019-02-08T02:05:33.397Z,3.70
2019-02-08T02:08:03.200Z,3.70
2019-02-08T02:10:36.807Z,3.60
2019-02-08T02:13:10.522Z,3.60
2019-02-08T02:15:43.726Z,3.70
2019-02-08T02:18:14.323Z,3.80
2019-02-08T02:20:44.345Z,3.80
2019-02-08T02:23:16.018Z,3.80
2019-02-08T02:25:47.137Z,3.80
2019-02-08T02:28:16.851Z,3.70
2019-02-08T02:30:46.714Z,3.70
2019-02-08T02:33:16.578Z,3.70
2019-02-08T02:35:48.139Z,3.70
2019-02-08T02:38:17.831Z,3.60
2019-02-08T02:40:47.547Z,3.60
2019-02-08T02:43:17.354Z,3.60
2019-02-08T02:46:06.945Z,3.60
2019-02-08T02:48:36.800Z,3.50
2019-02-08T02:51:06.662Z,3.50
2019-02-08T02:53:36.440Z,3.50
2019-02-08T02:56:06.296Z,3.50
2019-02-08T02:58:36.252Z,3.50
2019-02-08T03:01:06.374Z,3.50
2019-02-08T03:03:36.375Z,3.50
2019-02-08T03:06:06.607Z,3.50
2019-02-08T03:08:36.398Z,3.60
2019-02-08T03:11:06.247Z,3.60
2019-02-08T03:13:35.967Z,3.70
2019-02-08T03:16:07.138Z,3.60
2019-02-08T03:18:36.902Z,3.70
2019-02-08T03:21:06.770Z,3.60
2019-02-08T03:23:36.519Z,3.70
2019-02-08T03:26:06.404Z,3.70
2019-02-08T03:28:36.031Z,3.70
2019-02-08T03:31:05.901Z,3.60
2019-02-08T03:33:35.659Z,3.70
2019-02-08T03:36:05.831Z,3.70
2019-02-08T03:38:35.507Z,3.70
2019-02-08T03:41:05.363Z,3.70
2019-02-08T03:43:34.957Z,3.70
2019-02-08T03:46:04.950Z,3.70
2019-02-08T03:48:34.621Z,3.70
2019-02-08T03:51:04.381Z,3.70
2019-02-08T03:53:34.122Z,3.70
2019-02-08T03:56:03.959Z,3.70
2019-02-08T03:58:33.723Z,3.70
2019-02-08T04:01:05.450Z,3.70
2019-02-08T04:03:35.263Z,3.60
2019-02-08T04:06:05.549Z,3.60
2019-02-08T04:08:35.395Z,3.50
2019-02-08T04:11:05.249Z,3.50
2019-02-08T04:13:34.944Z,3.40
2019-02-08T04:16:05.218Z,3.40
2019-02-08T04:18:34.909Z,3.30
2019-02-08T04:21:04.644Z,3.30
2019-02-08T04:23:34.320Z,3.20
2019-02-08T04:26:03.980Z,3.10
2019-02-08T04:28:33.749Z,3.10
2019-02-08T04:31:03.475Z,3.00
2019-02-08T04:33:33.476Z,3.00
2019-02-08T04:36:03.237Z,2.90
2019-02-08T04:38:32.875Z,2.90
2019-02-08T04:41:02.567Z,2.80
2019-02-08T04:43:32.275Z,2.90
2019-02-08T04:46:01.969Z,2.90
2019-02-08T04:48:31.660Z,2.90
2019-02-08T04:51:01.318Z,2.90
2019-02-08T04:53:30.903Z,2.90
2019-02-08T04:56:00.611Z,2.90
2019-02-08T04:58:35.309Z,2.90
2019-02-08T05:01:01.488Z,2.80
2019-02-08T05:03:31.213Z,2.80
2019-02-08T05:06:00.987Z,2.80
2019-02-08T05:08:30.674Z,2.90
2019-02-08T05:11:00.465Z,2.80
2019-02-08T05:13:30.069Z,2.70
2019-02-08T05:15:59.728Z,2.70
2019-02-08T05:18:29.524Z,2.70
2019-02-08T05:20:59.388Z,2.60
2019-02-08T05:23:28.998Z,2.60
2019-02-08T05:25:58.802Z,2.50
2019-02-08T05:28:28.939Z,2.50
2019-02-08T05:30:58.599Z,2.50
2019-02-08T05:33:28.492Z,2.40
2019-02-08T05:35:58.372Z,2.30
2019-02-08T05:38:27.957Z,2.30
2019-02-08T05:40:58.191Z,2.30
2019-02-08T05:43:28.026Z,2.20
2019-02-08T05:45:57.739Z,2.20
2019-02-08T05:48:27.729Z,2.10
2019-02-08T05:50:57.514Z,2.10
2019-02-08T05:53:30.777Z,4.00
2019-02-08T05:56:03.507Z,3.50
2019-02-08T05:58:36.089Z,3.20
2019-02-08T06:01:06.228Z,2.90
2019-02-08T06:03:40.850Z,2.60
2019-02-08T06:06:10.883Z,2.50
2019-02-08T06:08:41.063Z,2.40
2019-02-08T06:11:10.839Z,2.20
2019-02-08T06:13:40.959Z,2.10
2019-02-08T06:16:10.827Z,2.10
2019-02-08T06:18:43.389Z,2.00
2019-02-08T06:21:13.163Z,2.00
2019-02-08T06:23:42.896Z,1.90
2019-02-08T06:26:12.803Z,2.00
2019-02-08T06:28:42.770Z,1.90
2019-02-08T06:31:14.637Z,1.80
2019-02-08T06:33:47.227Z,1.80
2019-02-08T06:36:17.221Z,1.80
2019-02-08T06:38:47.325Z,1.70
2019-02-08T06:41:17.245Z,1.70
2019-02-08T06:43:53.110Z,1.70
2019-02-08T06:46:23.553Z,1.80
2019-02-08T06:48:56.403Z,1.90
2019-02-08T06:51:32.477Z,1.90
2019-02-08T06:54:03.804Z,1.90
2019-02-08T06:57:17.070Z,2.00
2019-02-08T07:03:16.045Z,2.00
2019-02-08T07:05:59.100Z,2.00
2019-02-08T07:08:50.677Z,2.10
2019-02-08T07:12:28.195Z,2.10
2019-02-08T07:18:37.501Z,2.20
2019-02-08T07:21:44.549Z,2.30
2019-02-08T07:24:36.417Z,2.40
2019-02-08T07:27:10.620Z,2.40
2019-02-08T07:30:02.229Z,2.50
2019-02-08T07:32:51.618Z,2.60
2019-02-08T07:36:03.043Z,2.70
2019-02-08T07:42:42.214Z,2.90
2019-02-08T07:45:27.716Z,2.90
2019-02-08T07:48:32.924Z,3.00
2019-02-08T07:51:22.846Z,3.00
2019-02-08T07:54:19.243Z,3.10
2019-02-08T07:57:01.531Z,3.30
2019-02-08T07:59:49.708Z,3.30
2019-02-08T08:02:44.376Z,3.30
2019-02-08T08:05:29.337Z,3.40
2019-02-08T08:08:16.889Z,3.50
2019-02-08T08:10:52.948Z,3.50
2019-02-08T08:13:54.110Z,3.60
2019-02-08T08:16:31.516Z,3.70
2019-02-08T08:19:21.509Z,3.90
2019-02-08T08:22:16.092Z,3.90
2019-02-08T08:25:19.506Z,4.00
2019-02-08T08:28:09.858Z,4.10
2019-02-08T08:30:49.606Z,4.20
2019-02-08T08:33:38.231Z,4.40
2019-02-08T08:37:20.877Z,4.50
2019-02-08T08:40:33.106Z,4.60
2019-02-08T08:47:04.808Z,4.90
2019-02-08T08:53:49.219Z,5.00
2019-02-08T08:56:49.961Z,5.10
2019-02-08T09:00:06.086Z,5.10
2019-02-08T09:03:36.168Z,5.10
2019-02-08T10:40:29.662Z,6.60
2019-02-08T10:47:01.151Z,6.80
2019-02-08T10:50:19.215Z,6.80
2019-02-08T10:53:30.399Z,6.80
2019-02-08T11:07:37.023Z,7.00
2019-02-08T11:25:47.476Z,7.10
2019-02-08T11:28:18.417Z,7.10
2019-02-08T11:31:24.760Z,7.10
2019-02-08T11:34:06.524Z,7.10
2019-02-08T11:36:45.372Z,7.10
2019-02-08T11:39:56.960Z,7.20
2019-02-08T11:42:27.973Z,7.20
2019-02-08T11:45:02.482Z,7.20
2019-02-08T11:48:16.061Z,7.20
2019-02-08T11:50:50.591Z,7.20
2019-02-08T11:53:26.946Z,7.20
2019-02-08T11:55:59.634Z,7.20
2019-02-08T11:58:29.961Z,7.20
2019-02-08T12:00:59.824Z,7.10
2019-02-08T12:03:32.883Z,7.00
2019-02-08T12:06:18.290Z,7.00
2019-02-08T12:08:54.567Z,6.90
2019-02-08T12:11:20.008Z,6.90
2019-02-08T12:13:51.034Z,6.90
2019-02-08T12:16:21.093Z,7.00
2019-02-08T12:18:51.036Z,7.00
2019-02-08T12:21:23.116Z,6.90
2019-02-08T12:23:52.891Z,6.90
2019-02-08T12:26:22.988Z,6.90
2019-02-08T12:28:53.352Z,6.90
2019-02-08T12:31:26.279Z,7.00
2019-02-08T12:33:56.285Z,6.90
2019-02-08T12:36:26.267Z,6.90
2019-02-08T12:38:56.020Z,6.90
2019-02-08T12:41:25.802Z,6.90
2019-02-08T12:43:55.532Z,6.90
2019-02-08T12:46:25.256Z,7.00
2019-02-08T12:48:55.007Z,7.10
2019-02-08T12:51:26.852Z,7.00
2019-02-08T12:53:56.528Z,7.10
2019-02-08T12:56:26.369Z,7.20
2019-02-08T13:01:56.465Z,7.10
2019-02-08T13:04:29.330Z,7.10
2019-02-08T13:07:23.369Z,7.00
2019-02-08T13:09:53.275Z,7.00
2019-02-08T13:12:27.006Z,7.00
2019-02-08T13:14:56.132Z,7.10
2019-02-08T13:17:30.042Z,7.00
2019-02-08T13:19:59.852Z,7.10
2019-02-08T13:22:30.799Z,7.10
2019-02-08T13:32:17.880Z,7.00
2019-02-08T13:34:49.407Z,6.90
2019-02-08T13:37:22.520Z,6.90
2019-02-08T13:39:52.505Z,7.00
2019-02-08T13:42:28.931Z,7.00
2019-02-08T13:45:14.460Z,6.90
2019-02-08T13:48:17.500Z,6.90
2019-02-08T13:50:45.019Z,6.90
2019-02-08T13:53:18.540Z,6.90
2019-02-08T13:55:51.837Z,6.90
2019-02-08T13:58:21.637Z,6.90
2019-02-08T14:00:55.552Z,6.90
2019-02-08T14:03:25.531Z,6.90
2019-02-08T14:06:01.014Z,6.80
2019-02-08T14:08:30.839Z,6.80
2019-02-08T14:11:02.402Z,6.70
2019-02-08T14:13:41.129Z,6.70
2019-02-08T14:16:10.889Z,6.70
2019-02-08T14:18:45.706Z,6.60
2019-02-08T14:21:12.958Z,6.60
2019-02-08T14:23:46.082Z,6.50
2019-02-08T14:26:18.556Z,6.50
2019-02-08T14:28:48.914Z,6.50
2019-02-08T14:31:23.504Z,6.50
2019-02-08T14:33:55.938Z,6.50
2019-02-08T14:36:32.112Z,6.60
2019-02-08T14:39:01.825Z,6.60
2019-02-08T14:41:34.568Z,6.50
2019-02-08T14:44:14.479Z,6.60
2019-02-08T14:46:47.103Z,6.50
2019-02-08T14:49:17.047Z,6.40
2019-02-08T14:51:49.658Z,6.30
2019-02-08T14:54:22.470Z,6.30
2019-02-08T14:56:52.267Z,6.20
2019-02-08T14:59:24.651Z,6.10
2019-02-08T15:01:57.036Z,6.10
2019-02-08T15:04:26.423Z,6.00
2019-02-08T15:07:00.882Z,5.90
2019-02-08T15:09:30.698Z,5.90
2019-02-08T15:12:00.458Z,5.80
2019-02-08T15:14:30.291Z,5.80
2019-02-08T15:16:59.932Z,5.70
2019-02-08T15:19:29.692Z,5.60
2019-02-08T15:21:59.407Z,5.50
2019-02-08T15:24:29.122Z,5.40
2019-02-08T15:26:58.854Z,5.30
2019-02-08T15:29:28.843Z,5.30
2019-02-08T15:31:58.587Z,5.20
2019-02-08T15:34:28.335Z,5.20
2019-02-08T15:36:58.055Z,5.10
2019-02-08T15:39:27.713Z,5.00
2019-02-08T15:41:57.391Z,5.00
2019-02-08T15:44:27.161Z,4.90
2019-02-08T15:46:56.924Z,4.80
2019-02-08T15:49:26.788Z,4.80
2019-02-08T15:51:56.582Z,4.70
2019-02-08T15:54:26.315Z,4.70
2019-02-08T15:56:59.528Z,4.50
2019-02-08T15:59:29.462Z,4.50
2019-02-08T16:02:08.678Z,4.30
2019-02-08T16:04:42.559Z,4.20
2019-02-08T16:07:13.846Z,4.10
2019-02-08T16:09:43.501Z,4.00
2019-02-08T16:12:13.200Z,4.00
2019-02-08T16:14:42.930Z,4.00
2019-02-08T16:17:12.854Z,4.00
2019-02-08T16:19:42.598Z,4.00
2019-02-08T16:22:12.345Z,3.90
2019-02-08T16:24:42.031Z,3.90
2019-02-08T16:27:11.696Z,3.90
2019-02-08T16:29:41.468Z,3.90
2019-02-08T16:32:11.223Z,3.80
2019-02-08T16:34:40.927Z,3.80
2019-02-08T16:37:10.536Z,3.70
2019-02-08T16:39:40.214Z,3.60
2019-02-08T16:42:09.966Z,3.60
2019-02-08T16:44:39.566Z,3.60
2019-02-08T16:47:09.805Z,3.50
2019-02-08T16:49:40.518Z,3.40
2019-02-08T16:52:10.215Z,3.40
2019-02-08T16:54:39.923Z,3.30
2019-02-08T16:57:09.726Z,3.40
2019-02-08T16:59:39.477Z,3.30
2019-02-08T17:02:09.507Z,3.20
2019-02-08T17:04:39.223Z,3.20
2019-02-08T17:07:09.031Z,3.10
2019-02-08T17:09:42.282Z,3.10
2019-02-08T17:12:12.026Z,3.10
2019-02-08T17:14:43.589Z,3.10
2019-02-08T17:17:13.229Z,3.00
2019-02-08T17:19:43.113Z,2.90
2019-02-08T17:22:14.069Z,3.00
2019-02-08T17:24:48.033Z,3.10
2019-02-08T17:27:29.218Z,3.10
2019-02-08T17:30:53.853Z,3.10
2019-02-08T17:41:06.912Z,2.90
2019-02-08T17:43:59.141Z,2.90
2019-02-08T17:46:30.352Z,2.80
2019-02-08T17:49:51.730Z,2.80
2019-02-08T17:52:28.267Z,2.80
2019-02-08T17:54:57.945Z,2.80
2019-02-08T17:57:27.720Z,2.70
2019-02-08T17:59:57.505Z,2.70
2019-02-08T18:02:27.305Z,2.80
2019-02-08T18:04:57.049Z,2.80
2019-02-08T18:07:28.347Z,2.80
2019-02-08T18:09:58.209Z,2.80
2019-02-08T18:12:32.358Z,4.00
2019-02-08T18:14:59.835Z,3.80
2019-02-08T18:17:29.557Z,3.60
2019-02-08T18:20:02.570Z,3.50
2019-02-08T18:22:32.367Z,3.50
2019-02-08T18:25:03.332Z,3.40
2019-02-08T18:27:33.016Z,3.30
2019-02-08T18:30:02.803Z,3.30
2019-02-08T18:32:35.546Z,3.20
2019-02-08T18:41:17.817Z,3.10
2019-02-08T18:43:55.313Z,3.10
2019-02-08T18:46:26.678Z,3.20
2019-02-08T18:48:57.598Z,3.20
2019-02-08T18:51:32.193Z,3.20
2019-02-08T18:54:19.310Z,3.20
2019-02-08T18:56:53.459Z,3.20
2019-02-08T18:59:27.854Z,3.10
2019-02-08T19:08:49.077Z,3.00
2019-02-08T19:15:28.051Z,3.00
2019-02-08T19:33:56.141Z,2.90
2019-02-08T19:39:31.781Z,3.00
2019-02-08T19:42:05.564Z,3.00
2019-02-08T19:44:35.519Z,2.90
2019-02-08T19:47:15.148Z,2.90
2019-02-08T19:49:45.098Z,3.00
2019-02-08T19:53:27.157Z,3.00
2019-02-08T19:56:53.032Z,3.00
2019-02-08T20:06:37.321Z,2.90
2019-02-08T20:42:41.651Z,2.90
2019-02-08T20:54:43.164Z,3.20
2019-02-08T20:57:32.459Z,3.30
2019-02-08T21:03:17.410Z,3.20
2019-02-08T21:05:50.203Z,3.20
2019-02-08T21:08:22.264Z,3.30
2019-02-08T21:10:56.274Z,3.40
2019-02-08T21:13:26.441Z,3.40
2019-02-08T21:16:00.727Z,3.40
2019-02-08T21:22:58.951Z,3.40
2019-02-08T21:32:14.030Z,3.30
2019-02-08T21:35:41.204Z,3.30
2019-02-08T21:38:20.753Z,3.30
2019-02-08T21:42:17.152Z,3.30
2019-02-08T21:45:12.970Z,3.30
2019-02-08T21:48:01.639Z,3.20
2019-02-08T21:50:59.486Z,3.20
2019-02-08T21:53:37.044Z,3.20
2019-02-08T21:56:15.403Z,3.30
2019-02-08T22:06:25.707Z,3.40
2019-02-08T22:09:05.885Z,3.30
2019-02-08T22:12:33.124Z,3.40
2019-02-08T22:51:51.695Z,3.40
2019-02-08T22:54:31.251Z,3.40
2019-02-08T23:05:36.309Z,3.30
2019-02-08T23:08:52.171Z,3.30
2019-02-08T23:21:17.148Z,3.20
2019-02-08T23:39:46.208Z,3.50
